Time;durP1;ratioP1;P1;durP2;ratioP2;P2;SDS_P1;SDS_P2;PMS_P1;PMS_P2;Temp;Humidity;BMP_temperature;BMP_pressure;BME280_temperature;BME280_humidity;BME280_pressure;Samples;Min_cycle;Max_cycle;Signal;HPM_P1;HPM_P2
2023/07/12 00:00:24;;;;;;;2.95;2.30;;;26.40;57.00;;;;;;5018450;28;20256;-75
2023/07/12 00:02:53;;;;;;;4.45;2.67;;;26.50;57.20;;;;;;5018395;28;20643;-75
2023/07/12 00:05:20;;;;;;;2.75;2.42;;;26.50;57.20;;;;;;5002064;28;20199;-75
2023/07/12 00:07:49;;;;;;;3.35;2.53;;;26.50;57.20;;;;;;5017281;28;20195;-75
2023/07/12 00:10:17;;;;;;;3.63;2.55;;;26.40;57.30;;;;;;5019116;28;20627;-75
2023/07/12 00:12:45;;;;;;;3.47;2.80;;;26.40;57.50;;;;;;5019177;28;20202;-76
2023/07/12 00:15:14;;;;;;;2.75;2.40;;;26.40;57.40;;;;;;5018312;28;20269;-76
2023/07/12 00:17:41;;;;;;;4.25;2.53;;;26.40;57.40;;;;;;5018841;28;20231;-76
2023/07/12 00:20:17;;;;;;;2.90;2.47;;;26.30;57.40;;;;;;5018233;28;20216;-76
2023/07/12 00:22:44;;;;;;;3.42;2.58;;;26.30;57.50;;;;;;5018614;28;20195;-76
2023/07/12 00:25:13;;;;;;;3.28;2.20;;;26.30;57.50;;;;;;5001943;28;20200;-76
2023/07/12 00:27:40;;;;;;;3.58;2.28;;;26.30;57.50;;;;;;5018227;28;20204;-76
2023/07/12 00:30:16;;;;;;;2.30;2.10;;;26.30;57.40;;;;;;5018356;28;20219;-76
2023/07/12 00:32:43;;;;;;;3.13;2.50;;;26.30;57.40;;;;;;5018904;28;20639;-76
2023/07/12 00:35:14;;;;;;;2.78;2.28;;;26.30;57.50;;;;;;5003585;28;20227;-76
2023/07/12 00:37:41;;;;;;;3.03;2.38;;;26.30;57.40;;;;;;5018475;28;20685;-76
2023/07/12 00:40:17;;;;;;;3.88;2.17;;;26.30;57.50;;;;;;5018278;28;20245;-75
2023/07/12 00:42:44;;;;;;;2.88;2.30;;;26.30;57.50;;;;;;5018028;28;20198;-75
2023/07/12 00:45:11;;;;;;;2.95;2.30;;;26.20;57.40;;;;;;5018132;28;20200;-75
2023/07/12 00:47:38;;;;;;;2.67;2.25;;;26.20;57.50;;;;;;5018201;28;20200;-75
2023/07/12 00:50:15;;;;;;;3.13;2.10;;;26.30;57.50;;;;;;5017532;28;20219;-75
2023/07/12 00:52:42;;;;;;;2.30;2.10;;;26.20;57.50;;;;;;5017397;28;20669;-75
2023/07/12 00:55:42;;;;;;;3.22;2.00;;;26.20;57.60;;;;;;5001831;28;20645;-75
2023/07/12 00:58:11;;;;;;;2.85;2.20;;;26.20;57.70;;;;;;5035734;28;20651;-75
2023/07/12 01:00:38;;;;;;;2.90;2.10;;;26.20;57.70;;;;;;5018524;28;20203;-75
2023/07/12 01:03:05;;;;;;;2.10;1.90;;;26.20;57.60;;;;;;5017540;28;20198;-75
2023/07/12 01:05:32;;;;;;;2.00;1.80;;;26.20;57.70;;;;;;5017346;28;20223;-75
2023/07/12 01:07:59;;;;;;;2.20;1.80;;;26.20;57.70;;;;;;5017138;28;20233;-75
2023/07/12 01:10:29;;;;;;;2.20;2.00;;;26.20;57.90;;;;;;5017107;28;20223;-75
2023/07/12 01:12:56;;;;;;;3.30;2.03;;;26.20;57.90;;;;;;5017046;28;20206;-75
2023/07/12 01:15:24;;;;;;;2.10;1.90;;;26.20;57.80;;;;;;5016839;28;20695;-75
2023/07/12 01:17:51;;;;;;;2.63;2.05;;;26.10;57.80;;;;;;5017047;28;20222;-75
2023/07/12 01:20:18;;;;;;;2.10;1.90;;;26.10;57.90;;;;;;5016778;28;20227;-75
2023/07/12 01:22:46;;;;;;;3.28;1.83;;;26.10;57.70;;;;;;5000858;28;20199;-75
2023/07/12 01:25:14;;;;;;;2.80;2.10;;;26.10;57.90;;;;;;5034522;28;20188;-74
2023/07/12 01:27:41;;;;;;;2.75;1.90;;;26.10;58.00;;;;;;5034544;28;20219;-74
2023/07/12 01:30:09;;;;;;;2.72;1.90;;;26.10;57.90;;;;;;5034476;28;20620;-74
2023/07/12 01:32:36;;;;;;;3.13;1.83;;;26.10;57.90;;;;;;5034810;28;20204;-74
2023/07/12 01:35:03;;;;;;;2.20;2.00;;;26.10;57.90;;;;;;5017026;28;20220;-74
2023/07/12 01:37:30;;;;;;;2.13;1.92;;;26.10;57.80;;;;;;5016864;28;20204;-74
2023/07/12 01:39:58;;;;;;;2.17;1.70;;;26.10;57.90;;;;;;5017457;28;20269;-74
2023/07/12 01:42:25;;;;;;;2.42;2.00;;;26.10;57.90;;;;;;5018043;28;20196;-74
2023/07/12 01:44:52;;;;;;;3.08;2.00;;;26.10;58.00;;;;;;5016806;28;20198;-74
2023/07/12 01:47:20;;;;;;;3.08;1.80;;;26.10;58.00;;;;;;5016534;28;20685;-74
2023/07/12 01:49:47;;;;;;;1.90;1.70;;;26.10;58.00;;;;;;5016481;28;20274;-74
2023/07/12 01:52:14;;;;;;;1.80;1.70;;;26.10;58.10;;;;;;5016288;28;20681;-76
2023/07/12 01:54:41;;;;;;;2.42;1.77;;;26.00;58.00;;;;;;5016455;28;20567;-76
2023/07/12 01:57:11;;;;;;;2.20;1.90;;;26.10;58.00;;;;;;5017145;28;20227;-76
2023/07/12 01:59:38;;;;;;;1.80;1.63;;;26.00;58.00;;;;;;5016466;28;20216;-76
2023/07/12 02:02:06;;;;;;;2.25;2.00;;;26.10;58.00;;;;;;5016301;28;20659;-76
2023/07/12 02:04:32;;;;;;;2.55;1.98;;;26.00;58.00;;;;;;5016291;28;20663;-76
2023/07/12 02:06:59;;;;;;;1.70;1.60;;;26.00;57.90;;;;;;5016306;28;20200;-76
2023/07/12 02:09:33;;;;;;;2.22;1.55;;;26.00;57.80;;;;;;5016126;28;20226;-76
2023/07/12 02:12:02;;;;;;;2.05;1.85;;;26.00;57.90;;;;;;5016242;28;20191;-76
2023/07/12 02:14:37;;;;;;;2.30;1.70;;;26.00;57.90;;;;;;5000663;28;20204;-76
2023/07/12 02:17:05;;;;;;;1.80;1.67;;;26.00;58.00;;;;;;5016247;28;20210;-76
2023/07/12 02:19:33;;;;;;;3.17;1.90;;;26.00;57.90;;;;;;5015982;28;20269;-76
2023/07/12 02:22:00;;;;;;;2.20;1.70;;;26.00;58.00;;;;;;5016113;28;20199;-76
2023/07/12 02:24:27;;;;;;;2.15;1.95;;;26.00;58.10;;;;;;5015898;28;20191;-76
2023/07/12 02:26:54;;;;;;;2.75;1.67;;;26.00;58.00;;;;;;5016070;28;20198;-76
2023/07/12 02:29:21;;;;;;;2.65;1.60;;;26.00;58.10;;;;;;5015868;28;20441;-76
2023/07/12 02:31:53;;;;;;;2.88;2.10;;;26.00;58.10;;;;;;5018731;28;20202;-76
2023/07/12 02:34:20;;;;;;;2.75;1.63;;;25.90;58.20;;;;;;5020095;28;20255;-76
2023/07/12 02:36:47;;;;;;;2.97;2.10;;;26.00;58.20;;;;;;5037927;28;20191;-76
2023/07/12 02:39:14;;;;;;;2.13;1.80;;;25.90;58.20;;;;;;5019755;28;20226;-76
2023/07/12 02:41:41;;;;;;;2.30;1.80;;;25.90;58.20;;;;;;5019795;28;20203;-76
2023/07/12 02:44:08;;;;;;;2.67;1.88;;;25.90;58.20;;;;;;5019711;28;20564;-76
2023/07/12 02:46:34;;;;;;;1.83;1.73;;;25.90;58.20;;;;;;5020065;28;20195;-76
2023/07/12 02:49:03;;;;;;;2.65;1.90;;;25.90;58.70;;;;;;5019679;28;20397;-76
2023/07/12 02:51:29;;;;;;;1.75;1.65;;;25.90;58.20;;;;;;5019771;28;20204;-76
2023/07/12 02:53:56;;;;;;;1.73;1.58;;;25.90;58.40;;;;;;5019606;28;20216;-76
2023/07/12 02:56:23;;;;;;;2.40;1.73;;;25.90;58.30;;;;;;5020935;28;20196;-76
2023/07/12 02:58:50;;;;;;;2.78;1.80;;;25.90;58.30;;;;;;5020272;28;20219;-75
2023/07/12 03:01:17;;;;;;;2.40;1.85;;;25.90;58.20;;;;;;5020124;28;20192;-75
2023/07/12 03:03:44;;;;;;;2.80;1.80;;;25.80;58.10;;;;;;5019768;28;20196;-75
2023/07/12 03:06:13;;;;;;;1.90;1.80;;;25.90;58.30;;;;;;5019604;28;20250;-75
2023/07/12 03:08:40;;;;;;;2.78;1.77;;;25.90;58.30;;;;;;5019796;28;20220;-76
2023/07/12 03:11:08;;;;;;;2.97;2.00;;;25.90;58.50;;;;;;5019395;28;20200;-76
2023/07/12 03:13:36;;;;;;;2.78;1.95;;;25.80;58.70;;;;;;5019272;28;20567;-76
2023/07/12 03:16:03;;;;;;;3.72;2.08;;;25.90;58.70;;;;;;5019256;28;20226;-76
2023/07/12 03:18:31;;;;;;;3.28;2.03;;;25.90;58.60;;;;;;5019182;28;20216;-76
2023/07/12 03:21:00;;;;;;;2.03;1.65;;;25.90;58.60;;;;;;5019424;28;20202;-76
2023/07/12 03:23:29;;;;;;;2.53;1.90;;;25.90;58.60;;;;;;5019329;28;20234;-76
2023/07/12 03:25:56;;;;;;;1.88;1.77;;;25.90;58.40;;;;;;5036694;28;20184;-76
2023/07/12 03:28:23;;;;;;;2.88;1.77;;;25.90;58.50;;;;;;5019147;28;20196;-76
2023/07/12 03:30:57;;;;;;;2.03;1.85;;;25.90;58.30;;;;;;5018942;28;20207;-76
2023/07/12 03:33:24;;;;;;;4.15;1.83;;;26.00;58.40;;;;;;5019021;28;20196;-76
2023/07/12 03:35:52;;;;;;;3.03;2.20;;;26.00;58.30;;;;;;5018913;28;20705;-76
2023/07/12 03:38:20;;;;;;;2.72;1.55;;;26.00;58.10;;;;;;5019184;28;20207;-76
2023/07/12 03:40:48;;;;;;;2.08;1.63;;;26.00;58.10;;;;;;5018741;28;20219;-76
2023/07/12 03:43:15;;;;;;;3.50;2.10;;;26.00;58.00;;;;;;5018786;28;20196;-76
2023/07/12 03:45:43;;;;;;;2.63;1.80;;;26.00;57.90;;;;;;5018924;28;20677;-76
2023/07/12 03:48:10;;;;;;;2.50;1.83;;;26.10;57.90;;;;;;5021062;28;20670;-74
2023/07/12 03:50:38;;;;;;;2.25;1.65;;;26.10;58.00;;;;;;5018822;28;20204;-74
2023/07/12 03:53:05;;;;;;;3.28;2.03;;;26.10;57.90;;;;;;5018872;28;20199;-74
2023/07/12 03:55:33;;;;;;;2.67;2.05;;;26.10;57.80;;;;;;5019348;28;20226;-74
2023/07/12 03:58:02;;;;;;;4.15;1.92;;;26.10;57.70;;;;;;5019497;28;20196;-74
2023/07/12 04:00:29;;;;;;;4.32;2.20;;;26.10;57.70;;;;;;5018280;28;20222;-74
2023/07/12 04:02:56;;;;;;;2.00;1.80;;;26.20;57.80;;;;;;5018373;28;20200;-74
2023/07/12 04:05:23;;;;;;;5.03;2.08;;;26.20;57.80;;;;;;5003328;28;20192;-74
2023/07/12 04:21:14;;;;;;;4.50;1.98;;;26.20;57.70;;;;;;5014139;28;20208;-55
2023/07/12 04:23:42;;;;;;;2.33;1.98;;;26.20;57.60;;;;;;5015442;28;20625;-54
2023/07/12 04:26:09;;;;;;;2.80;1.90;;;26.20;57.60;;;;;;5015693;28;20188;-55
2023/07/12 04:28:38;;;;;;;2.95;2.15;;;26.20;57.60;;;;;;5015723;28;20668;-56
2023/07/12 04:31:06;;;;;;;3.72;1.80;;;26.20;58.20;;;;;;4999001;28;20282;-55
2023/07/12 04:33:33;;;;;;;4.68;2.10;;;26.20;57.60;;;;;;5015279;28;20208;-56
2023/07/12 04:36:05;;;;;;;3.45;2.00;;;26.20;57.60;;;;;;4997674;28;20251;-55
2023/07/12 04:38:33;;;;;;;4.22;1.98;;;26.20;57.60;;;;;;4997690;28;20200;-55
2023/07/12 04:41:00;;;;;;;3.30;2.15;;;26.20;57.70;;;;;;5015183;28;20652;-55
2023/07/12 04:43:27;;;;;;;4.90;2.50;;;26.20;57.60;;;;;;5013832;28;20266;-55
2023/07/12 04:45:54;;;;;;;3.30;2.30;;;26.20;57.60;;;;;;5015407;28;20280;-55
2023/07/12 04:48:22;;;;;;;4.18;2.17;;;26.30;57.70;;;;;;4998348;28;20552;-55
2023/07/12 04:50:51;;;;;;;2.97;2.20;;;26.30;57.60;;;;;;5015065;28;20272;-55
2023/07/12 04:53:18;;;;;;;3.67;2.17;;;26.30;57.50;;;;;;4997184;28;20228;-55
2023/07/12 04:55:46;;;;;;;3.50;2.25;;;26.40;57.50;;;;;;5015090;28;20331;-55
2023/07/12 04:58:14;;;;;;;2.05;1.85;;;26.40;57.30;;;;;;5013582;28;20200;-55
2023/07/12 05:00:41;;;;;;;3.75;2.15;;;26.50;57.30;;;;;;4997251;28;20665;-56
2023/07/12 05:03:08;;;;;;;3.30;2.20;;;26.50;57.20;;;;;;5013623;28;20222;-55
2023/07/12 05:05:35;;;;;;;3.65;2.25;;;26.50;57.30;;;;;;5014788;28;20181;-55
2023/07/12 05:08:02;;;;;;;4.55;2.35;;;26.50;57.20;;;;;;4998245;28;20517;-55
2023/07/12 05:10:29;;;;;;;4.30;2.40;;;26.50;57.20;;;;;;5015167;28;20196;-55
2023/07/12 05:12:58;;;;;;;7.03;2.88;;;26.50;57.30;;;;;;5014493;28;20208;-57
2023/07/12 05:15:25;;;;;;;5.57;3.20;;;26.50;57.90;;;;;;5014806;28;20628;-56
2023/07/12 05:17:52;;;;;;;5.75;3.00;;;26.40;58.60;;;;;;4996944;28;20571;-55
2023/07/12 05:20:19;;;;;;;5.43;3.00;;;26.20;59.10;;;;;;5014366;28;20211;-54
2023/07/12 05:22:47;;;;;;;4.60;3.13;;;26.10;59.40;;;;;;5014516;28;20291;-55
2023/07/12 05:25:15;;;;;;;7.60;3.50;;;26.00;60.00;;;;;;4996817;28;20259;-56
2023/07/12 05:27:42;;;;;;;5.78;3.67;;;25.90;60.80;;;;;;4996777;28;20203;-55
2023/07/12 05:30:11;;;;;;;4.20;3.17;;;25.80;61.00;;;;;;4996684;28;20192;-54
2023/07/12 05:32:37;;;;;;;6.35;3.40;;;25.70;61.70;;;;;;4996568;28;20224;-55
2023/07/12 05:35:05;;;;;;;4.47;3.22;;;25.60;61.80;;;;;;5013195;28;20693;-56
2023/07/12 05:37:33;;;;;;;8.05;3.35;;;25.60;62.40;;;;;;4996730;28;20200;-55
2023/07/12 05:40:00;;;;;;;5.07;3.40;;;25.50;62.60;;;;;;5013043;28;20268;-56
2023/07/12 05:42:27;;;;;;;4.80;3.35;;;25.40;63.20;;;;;;5014106;28;20769;-55
2023/07/12 05:44:54;;;;;;;6.32;3.38;;;25.40;63.70;;;;;;4996444;28;20224;-56
2023/07/12 05:47:22;;;;;;;8.50;3.67;;;25.40;63.70;;;;;;4996468;28;20539;-56
2023/07/12 05:49:49;;;;;;;7.97;3.78;;;25.40;63.50;;;;;;5014006;28;20201;-55
2023/07/12 05:52:16;;;;;;;5.03;3.47;;;25.40;63.80;;;;;;5013862;28;20213;-54
2023/07/12 05:54:43;;;;;;;7.47;3.70;;;25.40;64.00;;;;;;5013917;28;20192;-54
2023/07/12 05:57:11;;;;;;;6.15;3.33;;;25.30;64.70;;;;;;5014191;28;20245;-55
2023/07/12 05:59:38;;;;;;;7.57;3.25;;;25.30;64.40;;;;;;4997575;28;20195;-55
2023/07/12 06:02:06;;;;;;;3.70;3.05;;;25.40;63.30;;;;;;5013757;28;20208;-55
2023/07/12 06:04:34;;;;;;;4.40;3.10;;;25.40;62.30;;;;;;4996006;28;20610;-55
2023/07/12 06:07:01;;;;;;;7.88;3.75;;;25.50;61.80;;;;;;4996435;28;20201;-55
2023/07/12 06:09:28;;;;;;;3.50;3.08;;;25.60;61.40;;;;;;4996130;28;20544;-55
2023/07/12 06:11:55;;;;;;;6.07;3.25;;;25.70;60.80;;;;;;5013699;28;20219;-55
2023/07/12 06:14:22;;;;;;;4.63;3.58;;;25.80;60.80;;;;;;5013950;28;20187;-55
2023/07/12 06:16:49;;;;;;;6.15;3.38;;;25.90;60.30;;;;;;5014204;28;20311;-55
2023/07/12 06:19:16;;;;;;;4.93;3.25;;;26.00;60.00;;;;;;5013505;28;20210;-55
2023/07/12 06:21:45;;;;;;;6.20;3.40;;;26.10;59.70;;;;;;5012186;28;20203;-55
2023/07/12 06:24:12;;;;;;;4.05;3.00;;;26.20;59.40;;;;;;5013880;28;20192;-55
2023/07/12 06:26:39;;;;;;;4.97;3.05;;;26.20;59.30;;;;;;5012272;28;20246;-55
2023/07/12 06:29:06;;;;;;;4.55;3.20;;;26.30;59.20;;;;;;5013514;28;20263;-55
2023/07/12 06:31:34;;;;;;;4.28;3.10;;;26.40;58.90;;;;;;4996702;28;20196;-55
2023/07/12 06:34:02;;;;;;;6.60;3.30;;;26.50;58.60;;;;;;5013784;28;20191;-55
2023/07/12 06:39:04;;;;;;;4.47;3.40;;;26.80;58.00;;;;;;4973331;28;20214;-82
2023/07/12 06:41:31;;;;;;;3.50;2.85;;;26.90;57.50;;;;;;4961297;29;20231;-82
2023/07/12 06:43:58;;;;;;;3.20;2.90;;;27.10;57.20;;;;;;4976779;28;20182;-82
2023/07/12 06:46:25;;;;;;;4.13;3.03;;;27.20;56.60;;;;;;4963912;28;20225;-82
2023/07/12 06:48:53;;;;;;;4.78;2.70;;;27.50;56.10;;;;;;4971449;28;20217;-82
2023/07/12 06:51:19;;;;;;;5.55;3.10;;;27.70;55.60;;;;;;4944936;29;20202;-81
2023/07/12 06:53:46;;;;;;;6.63;3.05;;;27.90;55.20;;;;;;4944525;29;20210;-82
2023/07/12 06:56:15;;;;;;;4.43;2.95;;;28.00;54.80;;;;;;4960314;29;20219;-82
2023/07/12 06:58:42;;;;;;;4.95;3.00;;;28.10;54.60;;;;;;4961072;29;20334;-82
2023/07/12 07:01:10;;;;;;;3.60;2.65;;;28.20;54.30;;;;;;4944819;29;20206;-82
2023/07/12 07:03:37;;;;;;;4.88;3.08;;;28.30;54.00;;;;;;4961472;29;20653;-82
2023/07/12 07:06:04;;;;;;;4.63;3.17;;;28.40;53.70;;;;;;4944899;29;20221;-82
2023/07/12 07:08:31;;;;;;;4.78;2.90;;;28.50;53.50;;;;;;4961232;29;20250;-82
2023/07/12 07:11:00;;;;;;;3.70;3.10;;;28.60;53.20;;;;;;4945283;29;20253;-82
2023/07/12 07:13:29;;;;;;;4.72;2.92;;;28.70;53.00;;;;;;4961410;29;20198;-82
2023/07/12 07:15:56;;;;;;;7.35;2.80;;;28.80;52.90;;;;;;4961119;28;20226;-82
2023/07/12 07:18:23;;;;;;;3.42;2.92;;;28.80;52.90;;;;;;4963899;28;20652;-82
2023/07/12 07:20:51;;;;;;;4.45;3.00;;;28.70;52.90;;;;;;4943043;29;20571;-82
2023/07/12 07:23:18;;;;;;;3.97;2.88;;;28.70;53.10;;;;;;4944307;29;20206;-82
2023/07/12 07:25:46;;;;;;;4.25;3.10;;;28.60;53.00;;;;;;4961358;29;20650;-82
2023/07/12 07:28:13;;;;;;;3.15;2.78;;;28.60;53.00;;;;;;4962248;28;20206;-82
2023/07/12 07:30:41;;;;;;;5.15;3.00;;;28.70;53.00;;;;;;4947555;29;20202;-82
2023/07/12 07:33:09;;;;;;;5.25;2.95;;;28.70;52.80;;;;;;4963630;29;20202;-82
2023/07/12 07:35:36;;;;;;;4.90;3.50;;;28.70;52.60;;;;;;4946605;29;20218;-82
2023/07/12 07:38:03;;;;;;;3.28;2.97;;;28.80;52.50;;;;;;4962640;29;20213;-82
2023/07/12 07:40:30;;;;;;;4.68;3.13;;;28.80;52.30;;;;;;4946037;29;20229;-82
2023/07/12 07:42:57;;;;;;;4.72;3.22;;;28.90;52.20;;;;;;4960957;29;20622;-82
2023/07/12 07:45:25;;;;;;;3.58;3.28;;;28.90;52.10;;;;;;4960923;29;20198;-82
2023/07/12 07:47:53;;;;;;;3.08;2.60;;;29.00;52.00;;;;;;4960505;29;20198;-82
2023/07/12 07:50:21;;;;;;;4.13;2.83;;;29.10;51.80;;;;;;4959352;29;20230;-82
2023/07/12 07:52:48;;;;;;;3.72;2.83;;;29.20;51.70;;;;;;4942674;29;20198;-82
2023/07/12 07:55:15;;;;;;;5.40;3.15;;;29.20;51.30;;;;;;4941765;29;20202;-81
2023/07/12 07:57:42;;;;;;;3.55;2.90;;;29.30;51.20;;;;;;4962046;29;20720;-81
2023/07/12 08:00:13;;;;;;;5.00;3.00;;;29.40;51.00;;;;;;4948130;29;20281;-82
2023/07/12 08:02:42;;;;;;;3.20;2.90;;;29.50;50.80;;;;;;4948771;29;20194;-82
2023/07/12 08:05:10;;;;;;;3.30;3.00;;;29.60;50.40;;;;;;4948263;29;20563;-82
2023/07/12 08:07:39;;;;;;;3.17;2.88;;;29.70;50.20;;;;;;4948550;29;20214;-81
2023/07/12 08:10:08;;;;;;;3.72;2.80;;;29.80;49.80;;;;;;4963806;29;20246;-81
2023/07/12 08:12:35;;;;;;;2.70;2.50;;;29.90;49.50;;;;;;4964557;29;20202;-82
2023/07/12 08:15:01;;;;;;;3.28;2.97;;;30.10;49.40;;;;;;4948434;29;20198;-82
2023/07/12 08:17:28;;;;;;;3.30;3.00;;;30.20;49.10;;;;;;4964428;29;20241;-82
2023/07/12 08:19:55;;;;;;;3.55;3.10;;;30.20;48.90;;;;;;4948301;29;20225;-82
2023/07/12 08:22:25;;;;;;;3.50;3.00;;;30.30;48.80;;;;;;4960035;29;20293;-82
2023/07/12 08:24:52;;;;;;;3.20;2.88;;;30.40;48.70;;;;;;4962077;29;20212;-81
2023/07/12 08:27:19;;;;;;;2.83;2.40;;;30.40;48.50;;;;;;4967380;29;20190;-82
2023/07/12 08:29:46;;;;;;;3.78;2.88;;;30.40;48.20;;;;;;4966448;28;20289;-81
2023/07/12 08:32:15;;;;;;;3.20;2.80;;;30.50;48.10;;;;;;4970836;29;20209;-80
2023/07/12 08:34:42;;;;;;;4.00;2.70;;;30.50;48.10;;;;;;4953575;29;20198;-82
2023/07/12 08:37:09;;;;;;;3.35;2.92;;;30.50;47.90;;;;;;4949581;29;20222;-82
2023/07/12 08:39:38;;;;;;;3.78;3.00;;;30.60;47.80;;;;;;4965528;29;20221;-81
2023/07/12 08:42:11;;;;;;;3.50;3.00;;;30.70;47.80;;;;;;4947668;29;20208;-82
2023/07/12 08:44:38;;;;;;;4.55;3.17;;;30.70;47.50;;;;;;4963910;29;20194;-81
2023/07/12 08:47:05;;;;;;;3.55;2.88;;;30.70;47.50;;;;;;4964778;29;20193;-81
2023/07/12 08:49:33;;;;;;;3.20;2.90;;;30.80;47.40;;;;;;4965621;29;20225;-82
2023/07/12 08:52:04;;;;;;;3.15;2.85;;;30.80;47.30;;;;;;4962562;29;20221;-81
2023/07/12 08:54:33;;;;;;;3.83;2.90;;;30.90;47.30;;;;;;4980762;28;20200;-81
2023/07/12 08:57:14;;;;;;;4.05;2.60;;;30.90;47.10;;;;;;4980706;28;20214;-81
2023/07/12 08:59:41;;;;;;;3.20;2.80;;;30.90;47.00;;;;;;4968687;29;20250;-82
2023/07/12 09:02:16;;;;;;;3.22;2.92;;;30.90;46.90;;;;;;4969136;29;20229;-82
2023/07/12 09:04:43;;;;;;;3.22;2.92;;;31.00;46.90;;;;;;4967633;29;20637;-82
2023/07/12 09:07:10;;;;;;;4.18;2.70;;;30.90;46.70;;;;;;4952112;29;20712;-81
2023/07/12 09:09:38;;;;;;;2.97;2.50;;;31.00;46.70;;;;;;4966748;29;20246;-82
2023/07/12 09:12:07;;;;;;;2.90;2.60;;;31.00;46.60;;;;;;4966441;29;20198;-82
2023/07/12 09:14:37;;;;;;;3.33;2.72;;;31.00;46.60;;;;;;4949531;29;20273;-82
2023/07/12 09:17:07;;;;;;;3.17;2.65;;;31.00;46.60;;;;;;4965158;29;20309;-82
2023/07/12 09:19:38;;;;;;;3.47;2.75;;;31.00;46.60;;;;;;4949614;29;20214;-82
2023/07/12 09:22:10;;;;;;;3.60;3.13;;;31.00;46.60;;;;;;4949485;29;20198;-82
2023/07/12 09:24:41;;;;;;;3.17;2.88;;;30.90;46.50;;;;;;4947675;29;20205;-82
2023/07/12 09:27:15;;;;;;;2.70;2.50;;;30.90;46.50;;;;;;4957190;29;20190;-82
2023/07/12 09:29:44;;;;;;;2.75;2.55;;;30.90;46.70;;;;;;4943149;29;20643;-82
2023/07/12 09:32:16;;;;;;;2.80;2.50;;;30.70;46.80;;;;;;4961095;29;20233;-82
2023/07/12 09:34:43;;;;;;;2.92;2.70;;;30.70;46.80;;;;;;4947322;29;20310;-81
2023/07/12 09:37:14;;;;;;;2.60;2.40;;;30.70;46.80;;;;;;4966060;29;20637;-81
2023/07/12 09:39:42;;;;;;;2.85;2.60;;;30.70;46.80;;;;;;4960457;28;20222;-81
2023/07/12 09:42:10;;;;;;;3.17;2.88;;;30.80;46.80;;;;;;4960576;29;20202;-81
2023/07/12 09:44:37;;;;;;;2.95;2.75;;;30.80;46.70;;;;;;4943061;29;20198;-81
2023/07/12 09:47:10;;;;;;;3.25;2.83;;;30.80;47.10;;;;;;4942556;29;20224;-82
2023/07/12 09:49:39;;;;;;;3.20;2.50;;;30.80;46.50;;;;;;4942242;29;20247;-82
2023/07/12 09:52:12;;;;;;;2.70;2.50;;;30.80;46.40;;;;;;4940546;29;20299;-81
2023/07/12 09:54:44;;;;;;;3.28;2.42;;;30.90;46.60;;;;;;4940997;29;20200;-82
2023/07/12 09:57:15;;;;;;;2.80;2.50;;;30.80;46.50;;;;;;4945584;29;20213;-81
2023/07/12 10:00:01;;;;;;;2.92;2.72;;;30.80;46.50;;;;;;4961445;29;20241;-82
2023/07/12 10:02:38;;;;;;;2.60;2.40;;;30.80;46.40;;;;;;4962393;29;20198;-82
2023/07/12 10:05:07;;;;;;;3.00;2.70;;;30.80;46.40;;;;;;4962124;29;20197;-82
2023/07/12 10:07:53;;;;;;;3.58;2.80;;;30.80;46.50;;;;;;4945759;29;20209;-82
2023/07/12 10:10:25;;;;;;;2.70;2.47;;;30.80;46.50;;;;;;4961640;29;20273;-82
2023/07/12 10:12:56;;;;;;;2.70;2.50;;;30.80;46.30;;;;;;4945446;29;20580;-82
2023/07/12 10:15:23;;;;;;;2.83;2.42;;;30.80;46.40;;;;;;4945626;29;20197;-82
2023/07/12 10:17:52;;;;;;;2.40;2.20;;;30.80;46.40;;;;;;4944690;29;20323;-82
2023/07/12 10:20:21;;;;;;;2.53;2.30;;;30.80;46.40;;;;;;4944476;29;20230;-82
2023/07/12 10:22:48;;;;;;;2.88;2.67;;;30.70;46.50;;;;;;4943161;29;20720;-82
2023/07/12 10:25:20;;;;;;;3.17;2.35;;;30.70;46.60;;;;;;4960885;29;20672;-82
2023/07/12 10:27:50;;;;;;;2.60;2.40;;;30.70;46.60;;;;;;4943985;29;20245;-82
2023/07/12 10:30:18;;;;;;;3.35;2.55;;;30.70;46.60;;;;;;4959541;29;20222;-82
2023/07/12 10:32:48;;;;;;;2.35;2.15;;;30.70;46.60;;;;;;4961093;28;20178;-82
2023/07/12 10:35:21;;;;;;;2.70;2.50;;;30.70;47.10;;;;;;4979908;28;20175;-83
2023/07/12 10:37:49;;;;;;;2.40;2.20;;;30.70;46.50;;;;;;4969694;28;20233;-82
2023/07/12 10:40:17;;;;;;;2.78;2.55;;;30.70;46.40;;;;;;4939217;29;20221;-82
2023/07/12 10:42:46;;;;;;;3.03;2.42;;;30.70;46.30;;;;;;4956176;29;20256;-82
2023/07/12 10:45:18;;;;;;;2.92;2.60;;;30.70;46.40;;;;;;4939222;29;20701;-82
2023/07/12 10:47:47;;;;;;;3.10;2.50;;;30.70;46.40;;;;;;4939232;29;20187;-82
2023/07/12 10:50:24;;;;;;;2.78;2.58;;;30.70;46.40;;;;;;4939379;29;20229;-83
2023/07/12 10:53:04;;;;;;;2.78;2.40;;;30.70;46.50;;;;;;4958054;28;20209;-83
2023/07/12 10:55:42;;;;;;;2.67;2.45;;;30.60;46.50;;;;;;4943244;29;20201;-83
2023/07/12 10:58:44;;;;;;;2.65;2.35;;;30.60;46.80;;;;;;4959251;28;20221;-83
2023/07/12 11:01:33;;;;;;;2.85;2.65;;;30.50;46.90;;;;;;4959744;29;20201;-83
2023/07/12 11:04:07;;;;;;;2.55;2.35;;;30.40;46.80;;;;;;4947067;29;20713;-83
2023/07/12 11:06:35;;;;;;;2.97;2.78;;;30.30;46.90;;;;;;4944001;29;20209;-83
2023/07/12 11:09:03;;;;;;;2.65;2.38;;;30.30;46.90;;;;;;4959945;28;20229;-83
2023/07/12 11:11:43;;;;;;;2.95;2.72;;;30.20;46.90;;;;;;4962825;29;20221;-82
2023/07/12 11:14:22;;;;;;;2.70;2.50;;;30.20;46.90;;;;;;4944484;29;20621;-83
2023/07/12 11:16:53;;;;;;;2.90;2.45;;;30.20;47.20;;;;;;4944612;29;20213;-83
2023/07/12 11:19:35;;;;;;;3.05;2.40;;;30.20;47.30;;;;;;4945485;29;20225;-83
2023/07/12 11:22:09;;;;;;;3.05;2.75;;;30.10;47.30;;;;;;4945933;29;20202;-83
2023/07/12 11:24:37;;;;;;;2.60;2.40;;;30.10;47.20;;;;;;4960596;29;20265;-83
2023/07/12 11:27:10;;;;;;;3.58;2.42;;;30.10;47.50;;;;;;4929315;29;20198;-83
2023/07/12 11:29:39;;;;;;;2.47;2.28;;;30.00;47.60;;;;;;4964700;29;20250;-83
2023/07/12 11:32:13;;;;;;;3.05;2.65;;;30.00;47.50;;;;;;4960427;29;20198;-83
2023/07/12 11:34:40;;;;;;;2.83;2.63;;;30.00;47.50;;;;;;4944088;29;20206;-83
2023/07/12 11:37:15;;;;;;;2.80;2.60;;;30.00;47.50;;;;;;4944342;29;20218;-83
2023/07/12 11:39:42;;;;;;;3.75;2.60;;;30.00;47.80;;;;;;4959353;29;20226;-83
2023/07/12 11:42:23;;;;;;;2.97;2.70;;;29.90;47.50;;;;;;4942905;29;20209;-83
2023/07/12 11:44:59;;;;;;;2.78;2.40;;;29.90;47.60;;;;;;4943784;29;20198;-83
2023/07/12 11:47:26;;;;;;;2.63;2.42;;;29.90;47.60;;;;;;4942287;29;20665;-83
2023/07/12 11:49:55;;;;;;;2.92;2.67;;;29.80;47.90;;;;;;4957969;29;20217;-83
2023/07/12 11:52:24;;;;;;;4.15;2.90;;;29.80;47.70;;;;;;4959805;29;20685;-83
2023/07/12 11:54:53;;;;;;;4.43;2.90;;;29.70;47.30;;;;;;4962639;29;20217;-84
2023/07/12 11:57:20;;;;;;;3.20;2.90;;;29.70;47.50;;;;;;4943705;29;20218;-85
2023/07/12 11:59:49;;;;;;;5.63;3.28;;;29.70;47.60;;;;;;4943220;29;20296;-85
2023/07/12 12:02:18;;;;;;;5.78;3.13;;;29.70;47.80;;;;;;4943093;28;20297;-85
2023/07/12 12:04:48;;;;;;;5.97;3.00;;;29.70;48.10;;;;;;4941850;29;20198;-85
2023/07/12 12:07:20;;;;;;;6.95;3.10;;;29.70;48.80;;;;;;4942902;29;20200;-85
2023/07/12 12:09:48;;;;;;;4.68;3.15;;;29.70;48.70;;;;;;4943512;29;20222;-85
2023/07/12 12:12:17;;;;;;;6.18;3.25;;;29.70;48.50;;;;;;4941559;29;20285;-85
2023/07/12 12:14:44;;;;;;;9.40;3.38;;;29.60;48.20;;;;;;4941692;29;20202;-85
2023/07/12 12:17:15;;;;;;;5.80;3.35;;;29.70;48.20;;;;;;4941395;29;20218;-85
2023/07/12 12:19:42;;;;;;;3.58;3.10;;;29.70;48.00;;;;;;4958345;29;20218;-85
2023/07/12 12:22:15;;;;;;;4.25;3.13;;;29.70;47.80;;;;;;4942051;29;20206;-85
2023/07/12 12:24:43;;;;;;;4.10;3.10;;;29.70;47.60;;;;;;4990615;22;20219;-80
2023/07/12 12:27:16;;;;;;;3.85;3.20;;;29.70;47.50;;;;;;5019335;28;20678;-79
2023/07/12 12:29:43;;;;;;;3.53;3.22;;;29.70;47.50;;;;;;5019568;28;20215;-79
2023/07/12 12:32:15;;;;;;;6.57;3.47;;;29.80;47.40;;;;;;5020225;28;20206;-81
2023/07/12 12:34:49;;;;;;;4.88;3.47;;;29.80;47.50;;;;;;5036435;28;20191;-80
2023/07/12 12:37:18;;;;;;;4.15;3.55;;;29.80;47.40;;;;;;5037249;28;20202;-80
2023/07/12 12:39:57;;;;;;;4.10;3.42;;;29.80;47.50;;;;;;5020666;28;20311;-80
2023/07/12 12:42:26;;;;;;;3.83;3.40;;;29.80;47.50;;;;;;5019978;28;20198;-80
2023/07/12 12:44:54;;;;;;;5.18;3.20;;;29.70;47.50;;;;;;5019654;28;20203;-80
2023/07/12 12:47:22;;;;;;;3.17;2.92;;;29.70;47.50;;;;;;5020402;28;20206;-80
2023/07/12 12:49:50;;;;;;;4.30;3.22;;;29.70;47.50;;;;;;5018035;28;20215;-80
2023/07/12 12:52:22;;;;;;;4.25;3.40;;;29.70;47.30;;;;;;5018145;28;20196;-80
2023/07/12 12:54:50;;;;;;;5.78;3.25;;;29.70;47.10;;;;;;5018313;28;20191;-80
2023/07/12 12:57:17;;;;;;;4.00;3.60;;;29.70;47.00;;;;;;5018448;28;20258;-80
2023/07/12 12:59:46;;;;;;;3.58;3.28;;;29.70;47.00;;;;;;5036300;28;20233;-80
2023/07/12 13:02:13;;;;;;;3.85;2.92;;;29.70;46.80;;;;;;5018358;28;20739;-80
2023/07/12 13:04:41;;;;;;;4.03;3.35;;;29.70;46.80;;;;;;5018941;28;20677;-81
2023/07/12 13:07:16;;;;;;;4.68;3.08;;;29.70;46.80;;;;;;5018659;28;20655;-81
2023/07/12 13:09:43;;;;;;;3.17;2.97;;;29.70;47.40;;;;;;5019124;28;20223;-81
2023/07/12 13:12:10;;;;;;;3.38;3.03;;;29.70;46.80;;;;;;5018647;28;20206;-81